Time;durP1;ratioP1;P1;durP2;ratioP2;P2;SDS_P1;SDS_P2;PMS_P1;PMS_P2;Temp;Humidity;BMP_temperature;BMP_pressure;BME280_temperature;BME280_humidity;BME280_pressure;Samples;Min_cycle;Max_cycle;Signal;HPM_P1;HPM_P2
2023/04/30 00:01:33;;;;;;;9.68;8.45;;;16.80;99.90;;;;;;5070009;28;20037;-72
2023/04/30 00:03:59;;;;;;;9.38;8.65;;;16.80;99.90;;;;;;5071182;28;20051;-72
2023/04/30 00:06:25;;;;;;;9.80;8.90;;;16.80;99.90;;;;;;5075234;28;20103;-72
2023/04/30 00:08:51;;;;;;;10.05;9.05;;;16.80;99.90;;;;;;5074171;28;20059;-72
2023/04/30 00:11:17;;;;;;;10.02;9.13;;;16.80;99.90;;;;;;5075287;28;20032;-72
2023/04/30 00:13:43;;;;;;;9.95;8.93;;;16.80;99.90;;;;;;5075260;28;20028;-72
2023/04/30 00:16:10;;;;;;;10.48;9.20;;;16.80;99.90;;;;;;5053349;28;20033;-72
2023/04/30 00:18:36;;;;;;;9.70;8.80;;;16.70;99.90;;;;;;5054089;28;20480;-71
2023/04/30 00:21:03;;;;;;;10.13;9.23;;;16.60;99.90;;;;;;5054848;28;20064;-72
2023/04/30 00:23:29;;;;;;;9.82;8.85;;;16.60;99.90;;;;;;5038215;28;20509;-72
2023/04/30 00:25:55;;;;;;;10.82;8.93;;;16.40;99.90;;;;;;5035164;28;20470;-72
2023/04/30 00:28:21;;;;;;;9.43;8.43;;;16.20;99.90;;;;;;5034980;28;20508;-72
2023/04/30 00:30:47;;;;;;;10.13;9.15;;;16.10;99.90;;;;;;5039694;28;20029;-72
2023/04/30 00:33:13;;;;;;;10.90;9.32;;;16.00;99.90;;;;;;5053850;28;20024;-72
2023/04/30 00:35:39;;;;;;;10.38;9.38;;;15.90;99.90;;;;;;5053351;28;20028;-72
2023/04/30 00:38:05;;;;;;;10.13;9.20;;;15.90;99.90;;;;;;5053503;28;20033;-72
2023/04/30 00:40:34;;;;;;;10.25;9.25;;;15.90;99.90;;;;;;5054920;28;20029;-72
2023/04/30 00:43:00;;;;;;;9.75;8.85;;;15.80;99.90;;;;;;5053444;28;20037;-72
2023/04/30 00:45:26;;;;;;;10.93;9.93;;;15.90;99.90;;;;;;5054285;28;20029;-72
2023/04/30 00:47:52;;;;;;;9.68;8.60;;;16.10;99.90;;;;;;5070065;28;20363;-72
2023/04/30 00:50:18;;;;;;;9.95;9.05;;;16.00;99.90;;;;;;5053126;28;20036;-72
2023/04/30 00:52:44;;;;;;;10.07;9.18;;;15.90;99.90;;;;;;5053349;28;20462;-72
2023/04/30 00:55:11;;;;;;;10.70;9.57;;;15.80;99.90;;;;;;5053518;28;20405;-72
2023/04/30 00:57:37;;;;;;;11.32;9.88;;;15.70;99.90;;;;;;5053236;28;20037;-72
2023/04/30 01:00:05;;;;;;;11.10;10.00;;;15.60;99.90;;;;;;5052756;28;20032;-72
2023/04/30 01:02:31;;;;;;;12.10;10.13;;;15.40;99.90;;;;;;5053139;28;20044;-72
2023/04/30 01:04:57;;;;;;;12.65;10.65;;;15.30;99.90;;;;;;5069481;28;20028;-72
2023/04/30 01:07:26;;;;;;;11.95;10.73;;;15.30;99.90;;;;;;5053061;28;20032;-72
2023/04/30 01:09:52;;;;;;;15.43;10.88;;;15.20;99.90;;;;;;5069398;28;20040;-72
2023/04/30 01:12:33;;;;;;;13.70;11.30;;;15.30;99.90;;;;;;5052976;28;20048;-72
2023/04/30 01:15:25;;;;;;;11.88;10.63;;;15.30;99.90;;;;;;5054108;28;20021;-72
2023/04/30 01:17:54;;;;;;;11.43;10.32;;;15.40;99.90;;;;;;5088200;28;20036;-72
2023/04/30 01:20:20;;;;;;;12.02;10.73;;;15.40;99.90;;;;;;5073622;28;20036;-72
2023/04/30 01:22:51;;;;;;;12.82;11.60;;;15.40;99.90;;;;;;5063049;28;20040;-72
2023/04/30 01:26:13;;;;;;;13.73;11.30;;;15.20;99.90;;;;;;5052775;28;20323;-71
2023/04/30 01:28:41;;;;;;;12.43;11.13;;;15.10;99.90;;;;;;5011998;28;20042;-72
2023/04/30 01:31:14;;;;;;;12.82;11.45;;;15.10;99.90;;;;;;4986949;28;20065;-72
2023/04/30 01:33:40;;;;;;;13.02;11.68;;;15.00;99.90;;;;;;4959842;28;20049;-72
2023/04/30 01:36:18;;;;;;;13.30;11.90;;;15.00;99.90;;;;;;4976144;28;20102;-72
2023/04/30 01:39:03;;;;;;;13.70;12.30;;;15.00;99.90;;;;;;4992280;28;20042;-72
2023/04/30 01:41:38;;;;;;;14.35;12.85;;;15.10;99.90;;;;;;4992183;28;20526;-72
2023/04/30 01:44:04;;;;;;;16.58;13.95;;;15.20;99.90;;;;;;4992061;28;20427;-72
2023/04/30 01:46:30;;;;;;;20.10;14.68;;;15.30;99.90;;;;;;4991755;28;20038;-72
2023/04/30 01:49:25;;;;;;;18.25;15.02;;;15.30;99.90;;;;;;5007896;28;20058;-72
2023/04/30 01:51:56;;;;;;;18.70;15.50;;;15.10;99.90;;;;;;4991993;28;20034;-72
2023/04/30 01:54:37;;;;;;;21.30;14.90;;;15.00;99.90;;;;;;4959656;28;20483;-72
2023/04/30 01:57:09;;;;;;;18.02;14.88;;;14.90;99.90;;;;;;4992117;28;20065;-72
2023/04/30 01:59:37;;;;;;;19.40;14.45;;;14.70;99.90;;;;;;4975341;28;20030;-72
2023/04/30 02:02:03;;;;;;;16.73;14.73;;;14.70;99.90;;;;;;4982135;28;20055;-71
2023/04/30 02:04:29;;;;;;;18.10;14.88;;;14.70;99.90;;;;;;5022545;28;20035;-72
2023/04/30 02:06:57;;;;;;;17.35;14.82;;;14.70;99.90;;;;;;5044286;28;20040;-72
2023/04/30 02:09:23;;;;;;;19.15;14.73;;;14.80;99.90;;;;;;5048977;28;20033;-72
2023/04/30 02:11:50;;;;;;;18.45;15.82;;;14.70;99.90;;;;;;5050445;28;20044;-72
2023/04/30 02:14:16;;;;;;;18.95;15.50;;;14.60;99.90;;;;;;5051695;28;20485;-72
2023/04/30 02:16:42;;;;;;;17.10;14.98;;;14.60;99.90;;;;;;5050811;28;20044;-72
2023/04/30 02:19:09;;;;;;;17.45;14.15;;;14.70;99.90;;;;;;5067019;28;20033;-72
2023/04/30 02:21:35;;;;;;;18.25;14.05;;;14.80;99.90;;;;;;5051610;28;20045;-72
2023/04/30 02:24:01;;;;;;;17.52;14.23;;;14.80;99.90;;;;;;5031609;28;20044;-72
2023/04/30 02:26:27;;;;;;;17.83;14.32;;;14.70;99.90;;;;;;5066275;28;20037;-72
2023/04/30 02:28:53;;;;;;;16.65;14.68;;;14.60;99.90;;;;;;5050631;28;20028;-72
2023/04/30 02:31:19;;;;;;;20.77;14.77;;;14.70;99.90;;;;;;5065955;28;20040;-72
2023/04/30 02:33:45;;;;;;;19.88;14.02;;;14.60;99.90;;;;;;5051496;28;20037;-72
2023/04/30 02:36:11;;;;;;;18.73;15.65;;;14.40;99.90;;;;;;5050896;28;20405;-72
2023/04/30 02:38:37;;;;;;;19.75;15.77;;;14.40;99.90;;;;;;5052512;28;20044;-72
2023/04/30 02:41:03;;;;;;;19.98;15.73;;;14.50;99.90;;;;;;5052528;28;20056;-72
2023/04/30 02:43:29;;;;;;;17.25;14.55;;;14.40;99.90;;;;;;5052369;28;20029;-72
2023/04/30 02:45:56;;;;;;;17.65;15.13;;;14.30;99.90;;;;;;5051814;28;20040;-72
2023/04/30 02:48:22;;;;;;;19.67;15.95;;;14.40;99.90;;;;;;5052180;28;20063;-72
2023/04/30 02:50:48;;;;;;;18.45;15.10;;;14.30;99.90;;;;;;5067951;28;20029;-72
2023/04/30 02:53:14;;;;;;;19.30;15.98;;;14.30;99.90;;;;;;5050783;28;20029;-72
2023/04/30 02:55:40;;;;;;;17.75;15.20;;;14.40;99.90;;;;;;5052270;28;20382;-72
2023/04/30 02:58:06;;;;;;;19.10;15.15;;;14.40;99.90;;;;;;5051164;28;20317;-72
2023/04/30 03:00:32;;;;;;;20.42;15.48;;;14.30;99.90;;;;;;5067099;28;20394;-72
2023/04/30 03:02:59;;;;;;;18.13;15.38;;;14.30;99.90;;;;;;5067602;28;20048;-72
2023/04/30 03:05:25;;;;;;;20.35;16.35;;;14.40;99.90;;;;;;5052324;28;20351;-72
2023/04/30 03:07:51;;;;;;;19.55;16.40;;;14.30;99.90;;;;;;5067715;28;20036;-72
2023/04/30 03:10:17;;;;;;;19.52;15.75;;;14.50;99.90;;;;;;5067528;28;20025;-72
2023/04/30 03:12:44;;;;;;;21.10;16.02;;;14.50;99.90;;;;;;5051964;28;20040;-72
2023/04/30 03:15:10;;;;;;;18.42;15.98;;;14.40;99.90;;;;;;5051395;28;20025;-71
2023/04/30 03:17:36;;;;;;;20.60;15.57;;;14.40;99.90;;;;;;5052170;28;20021;-72
2023/04/30 03:20:02;;;;;;;24.90;16.60;;;14.30;99.90;;;;;;5051987;28;20459;-72
2023/04/30 03:22:29;;;;;;;20.55;16.58;;;14.40;99.90;;;;;;5052010;28;20397;-72
2023/04/30 03:24:55;;;;;;;19.23;16.02;;;14.50;99.90;;;;;;5050845;28;20028;-72
2023/04/30 03:27:21;;;;;;;19.98;16.08;;;14.40;99.90;;;;;;5052055;28;20482;-72
2023/04/30 03:29:47;;;;;;;21.13;15.38;;;14.40;99.90;;;;;;5051402;28;20390;-72
2023/04/30 03:32:13;;;;;;;20.88;15.82;;;14.30;99.90;;;;;;5051476;28;20496;-72
2023/04/30 03:34:40;;;;;;;19.95;16.33;;;14.20;99.90;;;;;;5050820;28;20413;-72
2023/04/30 03:37:06;;;;;;;20.95;16.05;;;14.20;99.90;;;;;;5051840;28;20040;-72
2023/04/30 03:39:32;;;;;;;21.00;15.57;;;14.20;99.90;;;;;;5052861;28;20454;-72
2023/04/30 03:41:58;;;;;;;19.48;16.52;;;14.10;99.90;;;;;;5055713;28;20037;-72
2023/04/30 03:44:24;;;;;;;20.63;16.77;;;14.20;99.90;;;;;;5042009;28;20489;-72
2023/04/30 03:46:50;;;;;;;23.80;16.85;;;14.10;99.90;;;;;;5055425;28;20103;-72
2023/04/30 03:49:16;;;;;;;22.70;17.08;;;13.90;99.90;;;;;;5071267;28;20493;-72
2023/04/30 03:51:42;;;;;;;22.48;17.08;;;13.80;99.90;;;;;;5054550;28;20036;-72
2023/04/30 03:54:09;;;;;;;23.77;17.13;;;13.70;99.90;;;;;;5055656;28;20029;-72
2023/04/30 03:56:35;;;;;;;21.90;16.15;;;13.60;99.90;;;;;;5070306;28;20048;-72
2023/04/30 03:59:01;;;;;;;23.33;16.88;;;13.60;99.90;;;;;;5054159;28;20055;-72
2023/04/30 04:01:28;;;;;;;22.83;16.75;;;13.50;99.90;;;;;;5053306;28;20033;-72
2023/04/30 04:03:54;;;;;;;22.65;17.15;;;13.30;99.90;;;;;;5055507;28;20033;-72
2023/04/30 04:06:21;;;;;;;23.90;17.70;;;13.20;99.90;;;;;;5070979;28;20037;-72
2023/04/30 04:08:47;;;;;;;22.10;17.63;;;13.10;99.90;;;;;;5055557;28;20055;-72
2023/04/30 04:11:13;;;;;;;24.58;17.15;;;13.10;99.90;;;;;;5070765;28;20378;-72
2023/04/30 04:13:40;;;;;;;23.33;17.15;;;13.20;99.90;;;;;;5070428;28;20036;-72
2023/04/30 04:16:07;;;;;;;22.88;16.30;;;13.30;99.90;;;;;;5054876;28;20033;-72
2023/04/30 04:18:33;;;;;;;22.55;17.33;;;13.20;99.90;;;;;;5055334;28;20029;-71
2023/04/30 04:21:00;;;;;;;22.85;17.17;;;13.20;99.90;;;;;;5055096;28;20497;-72
2023/04/30 04:23:26;;;;;;;22.05;17.35;;;13.10;99.90;;;;;;5069823;28;20045;-71
2023/04/30 04:25:52;;;;;;;22.75;17.55;;;13.10;99.90;;;;;;5055178;28;20496;-72
2023/04/30 04:28:18;;;;;;;22.85;17.15;;;13.00;99.90;;;;;;5054779;28;20029;-72
2023/04/30 04:30:44;;;;;;;22.83;17.30;;;13.10;99.90;;;;;;5054691;28;20036;-71
2023/04/30 04:33:11;;;;;;;24.08;17.58;;;13.20;99.90;;;;;;5054912;28;20036;-72
2023/04/30 04:35:37;;;;;;;25.73;17.50;;;13.40;99.90;;;;;;5055057;28;20032;-72
2023/04/30 04:38:03;;;;;;;23.77;17.08;;;13.50;99.90;;;;;;5054790;28;20033;-72
2023/04/30 04:40:30;;;;;;;27.30;18.23;;;13.40;99.90;;;;;;5053811;28;20060;-72
2023/04/30 04:42:56;;;;;;;26.83;17.50;;;13.50;99.90;;;;;;5052982;28;20049;-72
2023/04/30 04:45:22;;;;;;;25.90;17.58;;;13.50;99.90;;;;;;5053631;28;20045;-71
2023/04/30 04:47:48;;;;;;;23.77;16.92;;;13.40;99.90;;;;;;5053521;28;20061;-72
2023/04/30 04:50:15;;;;;;;20.42;16.70;;;13.50;99.90;;;;;;5053863;28;20044;-72
2023/04/30 04:52:41;;;;;;;22.50;16.90;;;13.50;99.90;;;;;;5070008;28;20036;-72
2023/04/30 04:55:07;;;;;;;23.65;17.95;;;13.60;99.90;;;;;;5053187;28;20041;-72
2023/04/30 04:57:33;;;;;;;26.98;17.10;;;13.50;99.90;;;;;;5054171;28;20033;-72
2023/04/30 04:59:59;;;;;;;21.95;16.00;;;13.30;99.90;;;;;;5069960;28;20029;-72
2023/04/30 05:02:25;;;;;;;23.13;16.23;;;13.00;99.90;;;;;;5053859;28;20056;-72
2023/04/30 05:04:51;;;;;;;23.58;16.80;;;12.90;99.90;;;;;;5069838;28;20029;-72
2023/04/30 05:07:18;;;;;;;25.30;17.88;;;12.80;99.90;;;;;;5054369;28;20036;-72
2023/04/30 05:09:45;;;;;;;22.60;17.13;;;12.80;99.90;;;;;;5069933;28;20032;-72
2023/04/30 05:12:12;;;;;;;23.58;17.60;;;12.80;99.90;;;;;;5068478;28;20041;-72
2023/04/30 05:14:38;;;;;;;25.27;17.33;;;13.00;99.90;;;;;;5069847;28;20025;-72
2023/04/30 05:17:05;;;;;;;25.13;18.45;;;13.00;99.90;;;;;;5052596;28;20040;-72
2023/04/30 05:19:31;;;;;;;22.73;17.35;;;12.90;99.90;;;;;;5069378;28;20021;-72
2023/04/30 05:21:59;;;;;;;24.50;16.75;;;13.00;99.90;;;;;;5053881;28;20029;-72
2023/04/30 05:24:27;;;;;;;23.88;17.20;;;12.90;99.90;;;;;;5054088;28;20025;-72
2023/04/30 05:26:53;;;;;;;23.38;17.00;;;12.90;99.90;;;;;;5053653;28;20031;-72
2023/04/30 05:29:19;;;;;;;22.58;17.30;;;12.90;99.90;;;;;;5052754;28;20465;-73
2023/04/30 05:31:45;;;;;;;23.45;16.98;;;12.90;99.90;;;;;;5035155;28;20044;-72
2023/04/30 05:34:11;;;;;;;24.27;17.30;;;12.80;99.90;;;;;;5053848;28;20033;-72
2023/04/30 05:36:37;;;;;;;23.20;17.05;;;12.70;99.90;;;;;;5051913;28;20395;-72
2023/04/30 05:39:04;;;;;;;24.08;17.50;;;12.70;99.90;;;;;;5053678;28;20025;-72
2023/04/30 05:41:30;;;;;;;23.00;17.75;;;12.80;99.90;;;;;;5050401;28;20033;-72
2023/04/30 05:43:56;;;;;;;24.75;16.58;;;12.70;99.90;;;;;;5053510;28;20473;-72
2023/04/30 05:46:22;;;;;;;23.33;17.27;;;12.70;99.90;;;;;;5068495;28;20043;-72
2023/04/30 05:48:48;;;;;;;21.85;16.25;;;12.70;99.90;;;;;;5053498;28;20520;-72
2023/04/30 05:51:14;;;;;;;23.15;17.25;;;12.70;99.90;;;;;;5053441;28;20036;-72
2023/04/30 05:53:41;;;;;;;23.52;17.20;;;12.70;99.90;;;;;;5053673;28;20024;-72
2023/04/30 05:56:07;;;;;;;23.65;17.00;;;12.90;99.90;;;;;;5052993;28;20036;-72
2023/04/30 05:58:33;;;;;;;22.30;17.02;;;13.00;99.90;;;;;;5053337;28;20044;-72
2023/04/30 06:00:59;;;;;;;23.73;16.50;;;13.00;99.90;;;;;;5051388;28;20040;-72
2023/04/30 06:03:26;;;;;;;21.70;17.08;;;13.10;99.90;;;;;;5053060;28;20040;-72
2023/04/30 06:05:52;;;;;;;22.52;17.00;;;13.00;99.90;;;;;;5053300;28;20029;-72
2023/04/30 06:08:18;;;;;;;22.70;16.15;;;13.10;99.90;;;;;;5068275;28;20032;-71
2023/04/30 06:10:45;;;;;;;24.58;16.33;;;13.10;99.90;;;;;;5051438;28;20393;-72
2023/04/30 06:13:11;;;;;;;23.15;17.20;;;13.00;99.90;;;;;;5052175;28;20370;-72
2023/04/30 06:15:37;;;;;;;22.95;16.38;;;13.00;99.90;;;;;;5051447;28;20025;-72
2023/04/30 06:18:03;;;;;;;21.98;16.05;;;13.10;99.90;;;;;;5052956;28;20377;-72
2023/04/30 06:20:29;;;;;;;26.02;16.73;;;13.10;99.90;;;;;;5068521;28;20025;-72
2023/04/30 06:22:55;;;;;;;20.63;15.95;;;13.00;99.90;;;;;;5052489;28;20033;-71
2023/04/30 06:25:21;;;;;;;21.63;16.60;;;13.00;99.90;;;;;;5051889;28;20389;-72
2023/04/30 06:27:47;;;;;;;22.38;16.10;;;13.00;99.90;;;;;;5051553;28;20032;-72
2023/04/30 06:30:14;;;;;;;20.67;16.00;;;13.10;99.90;;;;;;5052325;28;20369;-72
2023/04/30 06:32:40;;;;;;;21.77;15.45;;;13.10;99.90;;;;;;5052528;28;20037;-72
2023/04/30 06:35:06;;;;;;;21.13;15.05;;;13.10;99.90;;;;;;5068221;28;20028;-72
2023/04/30 06:37:36;;;;;;;21.95;16.17;;;13.10;99.90;;;;;;5052270;28;20041;-71
2023/04/30 06:40:04;;;;;;;22.20;15.85;;;13.10;99.90;;;;;;5052113;28;20060;-72
2023/04/30 06:42:34;;;;;;;22.75;15.73;;;13.10;99.90;;;;;;5052427;28;20044;-72
2023/04/30 06:45:05;;;;;;;23.70;15.82;;;13.10;99.90;;;;;;5034697;28;20041;-72
2023/04/30 06:47:35;;;;;;;22.77;14.95;;;13.10;99.90;;;;;;5051631;28;20519;-72
2023/04/30 06:50:01;;;;;;;19.90;15.02;;;13.10;99.90;;;;;;5067376;28;20584;-72
2023/04/30 06:52:29;;;;;;;22.40;15.23;;;13.10;99.90;;;;;;5051059;28;20043;-72
2023/04/30 06:54:55;;;;;;;22.75;14.48;;;13.20;99.90;;;;;;5050805;28;20517;-72
2023/04/30 06:57:21;;;;;;;20.17;15.10;;;13.30;99.90;;;;;;5052410;28;20028;-71
2023/04/30 06:59:47;;;;;;;19.58;11.98;;;13.30;99.90;;;;;;5067931;28;20374;-72
2023/04/30 07:02:14;;;;;;;21.38;13.63;;;13.20;99.90;;;;;;5051687;28;20040;-72
2023/04/30 07:04:40;;;;;;;21.55;14.15;;;13.30;99.90;;;;;;5052275;28;20386;-72
2023/04/30 07:07:06;;;;;;;20.33;13.93;;;13.30;99.90;;;;;;5052111;28;20040;-72
2023/04/30 07:09:32;;;;;;;19.27;14.32;;;13.40;99.90;;;;;;5067755;28;20034;-72
2023/04/30 07:11:58;;;;;;;22.40;16.27;;;13.60;99.90;;;;;;5050361;28;20041;-72
2023/04/30 07:14:24;;;;;;;17.48;13.95;;;13.70;99.90;;;;;;5067129;28;20044;-72
2023/04/30 07:16:50;;;;;;;17.50;12.77;;;13.70;99.90;;;;;;5051645;28;20041;-72
2023/04/30 07:19:16;;;;;;;22.30;14.07;;;13.60;99.90;;;;;;5063328;28;20454;-71
2023/04/30 07:21:42;;;;;;;20.67;13.95;;;13.60;99.90;;;;;;5048793;28;20033;-72
2023/04/30 07:24:09;;;;;;;22.20;14.82;;;13.70;99.90;;;;;;5050244;28;20033;-72
2023/04/30 07:26:35;;;;;;;19.05;14.25;;;13.90;99.90;;;;;;5050546;28;20462;-72
2023/04/30 07:29:02;;;;;;;19.92;13.95;;;13.90;99.90;;;;;;5050244;28;20040;-72
2023/04/30 07:31:28;;;;;;;15.95;12.07;;;13.90;99.90;;;;;;5064771;28;20040;-72
2023/04/30 07:33:54;;;;;;;18.40;13.60;;;14.00;99.90;;;;;;5050264;28;20036;-72
2023/04/30 07:36:21;;;;;;;18.92;12.63;;;14.00;99.90;;;;;;5065237;28;20032;-72
2023/04/30 07:38:47;;;;;;;20.70;13.57;;;14.10;99.90;;;;;;5049058;28;20040;-72
2023/04/30 07:41:13;;;;;;;19.27;14.95;;;14.10;99.90;;;;;;5048915;28;20496;-72
2023/04/30 07:43:39;;;;;;;18.02;13.60;;;14.10;99.90;;;;;;5050413;28;20037;-72
2023/04/30 07:46:06;;;;;;;16.98;13.50;;;14.10;99.90;;;;;;5048034;28;20025;-72
2023/04/30 07:48:32;;;;;;;18.08;13.77;;;14.30;99.90;;;;;;5047950;28;20481;-72
2023/04/30 07:50:58;;;;;;;22.20;14.52;;;14.30;99.90;;;;;;5049739;28;20033;-72
2023/04/30 07:53:24;;;;;;;18.33;13.93;;;14.40;99.90;;;;;;5065678;28;20422;-72
2023/04/30 07:55:50;;;;;;;19.50;13.93;;;14.50;99.90;;;;;;5050280;28;20021;-72
2023/04/30 07:58:16;;;;;;;16.65;13.20;;;14.70;99.90;;;;;;5049463;28;20032;-72
2023/04/30 08:00:42;;;;;;;17.52;14.57;;;14.90;99.90;;;;;;5064848;28;20366;-72
2023/04/30 08:03:08;;;;;;;20.45;13.75;;;15.20;99.90;;;;;;5050272;28;20275;-72
2023/04/30 08:05:35;;;;;;;18.98;13.13;;;15.40;99.90;;;;;;5049895;28;20033;-72
2023/04/30 08:08:01;;;;;;;18.00;12.25;;;15.50;99.90;;;;;;5064495;28;20462;-72
2023/04/30 08:10:27;;;;;;;19.38;13.38;;;15.70;99.90;;;;;;5050083;28;20033;-72
2023/04/30 08:12:53;;;;;;;17.88;13.32;;;15.90;99.90;;;;;;5048621;28;20402;-72
2023/04/30 08:15:20;;;;;;;15.50;13.23;;;15.90;99.90;;;;;;5048455;28;20029;-72
2023/04/30 08:17:50;;;;;;;17.02;12.65;;;16.00;99.90;;;;;;5064797;28;20029;-72
2023/04/30 08:20:16;;;;;;;15.23;12.43;;;16.00;99.90;;;;;;5048304;28;20033;-72
2023/04/30 08:22:43;;;;;;;16.05;12.20;;;16.10;99.90;;;;;;5065395;28;20040;-72
2023/04/30 08:25:11;;;;;;;14.43;11.60;;;16.20;99.90;;;;;;5050210;28;20052;-72
2023/04/30 08:27:37;;;;;;;18.85;13.25;;;16.20;99.90;;;;;;5052562;28;20041;-72
2023/04/30 08:30:06;;;;;;;16.98;12.70;;;16.20;99.90;;;;;;5053802;28;20041;-71
2023/04/30 08:32:35;;;;;;;18.83;13.05;;;16.20;99.90;;;;;;5054878;28;20481;-72
2023/04/30 08:35:05;;;;;;;17.67;12.63;;;16.40;99.90;;;;;;5070009;28;20536;-72
2023/04/30 08:37:31;;;;;;;15.38;11.77;;;16.50;99.90;;;;;;5070261;28;20064;-72
2023/04/30 08:39:57;;;;;;;16.05;12.23;;;16.50;99.90;;;;;;5054782;28;20284;-72
2023/04/30 08:42:35;;;;;;;14.95;13.00;;;16.50;99.90;;;;;;5053629;28;20040;-72
2023/04/30 08:45:02;;;;;;;15.50;12.13;;;16.60;99.90;;;;;;5053543;28;20040;-72
2023/04/30 08:47:28;;;;;;;14.48;11.50;;;16.70;99.90;;;;;;5069364;28;20037;-72
2023/04/30 08:49:54;;;;;;;15.00;12.15;;;16.80;99.90;;;;;;5052978;28;20045;-72
2023/04/30 08:52:21;;;;;;;14.93;12.25;;;16.70;99.90;;;;;;5070013;28;20481;-72
2023/04/30 08:54:47;;;;;;;17.13;12.10;;;16.80;99.90;;;;;;5070205;28;20025;-72
2023/04/30 08:57:13;;;;;;;15.40;12.05;;;16.80;99.90;;;;;;5054548;28;20040;-72
2023/04/30 08:59:39;;;;;;;15.40;12.68;;;16.80;99.90;;;;;;5054615;28;20021;-72
2023/04/30 09:02:06;;;;;;;16.63;12.70;;;16.80;99.90;;;;;;5052104;28;20036;-72
2023/04/30 09:04:32;;;;;;;14.15;12.50;;;16.90;99.90;;;;;;5054222;28;20032;-72
2023/04/30 09:06:58;;;;;;;15.55;12.60;;;16.90;99.90;;;;;;5053165;28;20029;-72
2023/04/30 09:09:29;;;;;;;15.57;12.75;;;17.20;99.90;;;;;;5053120;28;20040;-72
2023/04/30 09:12:12;;;;;;;14.50;12.05;;;17.30;99.90;;;;;;5052995;28;20021;-71
2023/04/30 09:14:39;;;;;;;13.82;11.75;;;17.10;99.90;;;;;;5054289;28;20025;-72
2023/04/30 09:17:05;;;;;;;13.45;11.93;;;17.30;99.90;;;;;;5068824;28;20033;-72
2023/04/30 09:19:31;;;;;;;15.10;12.57;;;17.60;99.90;;;;;;5069638;28;20037;-72
2023/04/30 09:21:58;;;;;;;15.38;12.95;;;17.80;99.90;;;;;;5069341;28;20025;-72
2023/04/30 09:24:24;;;;;;;17.00;12.38;;;17.70;99.90;;;;;;5052788;28;20045;-72
2023/04/30 09:26:50;;;;;;;14.48;12.25;;;17.90;99.90;;;;;;5069449;28;20033;-72
2023/04/30 09:29:16;;;;;;;17.88;12.73;;;18.10;99.90;;;;;;5069422;28;20033;-72
2023/04/30 09:31:43;;;;;;;16.77;13.85;;;18.00;99.90;;;;;;5068437;28;20033;-72
2023/04/30 09:34:10;;;;;;;16.52;13.38;;;18.20;99.90;;;;;;5035538;28;20040;-72
2023/04/30 09:36:36;;;;;;;15.38;12.45;;;18.40;99.90;;;;;;5068692;28;20028;-72
2023/04/30 09:39:20;;;;;;;15.38;12.82;;;18.40;99.90;;;;;;5053694;28;20386;-72
2023/04/30 09:41:46;;;;;;;15.30;12.10;;;18.40;99.90;;;;;;5052310;28;20033;-72
2023/04/30 09:44:28;;;;;;;14.95;11.88;;;18.60;99.90;;;;;;5052173;28;20044;-72
2023/04/30 09:46:56;;;;;;;20.98;13.93;;;18.80;99.90;;;;;;5068232;28;20037;-72
2023/04/30 09:49:22;;;;;;;14.23;11.90;;;18.70;99.90;;;;;;5052209;28;20045;-72
2023/04/30 09:51:55;;;;;;;18.20;13.57;;;18.80;99.90;;;;;;5053677;28;20033;-72
2023/04/30 09:54:27;;;;;;;18.52;13.50;;;19.10;99.90;;;;;;5068977;28;20366;-72
2023/04/30 09:56:54;;;;;;;19.38;15.27;;;19.30;99.90;;;;;;5035494;28;20037;-72
2023/04/30 09:59:21;;;;;;;16.10;14.48;;;19.30;99.90;;;;;;5052267;28;20028;-72
2023/04/30 10:01:47;;;;;;;17.90;14.43;;;19.40;99.90;;;;;;5067995;28;20390;-72
2023/04/30 10:04:13;;;;;;;17.52;14.52;;;19.60;99.90;;;;;;5052056;28;20047;-72
2023/04/30 10:06:40;;;;;;;17.70;14.65;;;19.40;99.90;;;;;;5052153;28;20021;-72
2023/04/30 10:09:06;;;;;;;17.30;15.43;;;19.50;99.90;;;;;;5052030;28;20374;-72
2023/04/30 10:11:33;;;;;;;18.70;14.82;;;19.50;99.90;;;;;;5051966;28;20032;-72
2023/04/30 10:14:03;;;;;;;17.52;14.20;;;19.60;99.90;;;;;;5051907;28;20029;-72
2023/04/30 10:16:52;;;;;;;19.63;14.27;;;19.70;99.90;;;;;;5067679;28;20394;-73
2023/04/30 10:19:19;;;;;;;18.70;14.88;;;19.80;99.90;;;;;;5068480;28;20409;-72
2023/04/30 10:21:46;;;;;;;18.08;14.55;;;19.90;99.90;;;;;;5051678;28;20490;-72
2023/04/30 10:24:13;;;;;;;19.73;14.10;;;19.90;99.90;;;;;;5051713;28;20045;-72
2023/04/30 10:26:39;;;;;;;18.42;14.60;;;19.70;99.90;;;;;;5051859;28;20021;-72
2023/04/30 10:29:06;;;;;;;17.15;12.93;;;19.60;99.90;;;;;;5068339;28;20040;-72
2023/04/30 10:31:32;;;;;;;22.40;14.57;;;19.60;99.90;;;;;;5067404;28;20032;-72
2023/04/30 10:34:27;;;;;;;21.83;15.07;;;19.40;99.90;;;;;;5068164;28;20029;-72
2023/04/30 10:36:58;;;;;;;15.10;13.48;;;19.80;99.90;;;;;;5052615;28;20024;-72
2023/04/30 10:39:27;;;;;;;17.38;14.10;;;20.00;99.90;;;;;;5051471;28;20462;-72
2023/04/30 10:42:03;;;;;;;19.10;14.60;;;20.10;99.90;;;;;;5051605;28;20025;-72
2023/04/30 10:44:35;;;;;;;18.35;14.38;;;20.30;99.90;;;;;;5050988;28;20040;-72
2023/04/30 10:47:03;;;;;;;17.10;14.23;;;20.30;99.90;;;;;;5067167;28;20478;-72
2023/04/30 10:49:29;;;;;;;16.30;14.25;;;20.60;99.90;;;;;;5050110;28;20398;-72
2023/04/30 10:51:59;;;;;;;17.05;15.27;;;20.90;99.90;;;;;;5050699;28;20033;-72
2023/04/30 10:54:26;;;;;;;17.45;15.65;;;20.90;99.90;;;;;;5068021;28;20028;-72
2023/04/30 10:56:55;;;;;;;17.77;15.93;;;20.70;99.90;;;;;;5051172;28;20355;-72
2023/04/30 10:59:23;;;;;;;15.70;12.95;;;20.60;99.90;;;;;;5051940;28;20025;-72
2023/04/30 11:01:56;;;;;;;16.25;14.73;;;20.60;99.90;;;;;;5067274;28;20033;-72
2023/04/30 11:04:23;;;;;;;17.90;16.10;;;20.50;99.90;;;;;;5051085;28;20033;-72
2023/04/30 11:06:55;;;;;;;16.75;15.07;;;20.60;99.90;;;;;;5067833;28;20036;-72
2023/04/30 11:09:45;;;;;;;15.57;14.02;;;20.70;99.90;;;;;;5052038;28;20040;-72
2023/04/30 11:12:11;;;;;;;15.97;14.37;;;20.70;99.90;;;;;;5043364;28;20363;-72
2023/04/30 11:14:40;;;;;;;18.88;16.98;;;21.20;99.90;;;;;;5051847;28;20025;-72
2023/04/30 11:17:06;;;;;;;16.58;14.65;;;21.50;99.90;;;;;;5067035;28;20036;-72
2023/04/30 11:19:33;;;;;;;17.15;15.18;;;21.30;99.90;;;;;;5067620;28;20367;-72
2023/04/30 11:22:02;;;;;;;14.48;13.15;;;21.00;99.90;;;;;;5050390;28;20037;-72
2023/04/30 11:24:50;;;;;;;13.90;12.48;;;21.00;99.90;;;;;;5052099;28;20037;-72
2023/04/30 11:27:23;;;;;;;13.35;12.05;;;20.80;99.90;;;;;;5052037;28;20021;-72
2023/04/30 11:29:50;;;;;;;12.85;11.55;;;20.70;99.90;;;;;;5051100;28;20040;-72
2023/04/30 11:32:17;;;;;;;13.25;11.95;;;20.70;99.90;;;;;;5066883;28;20036;-72
2023/04/30 11:34:44;;;;;;;13.40;11.20;;;20.80;99.90;;;;;;5067487;28;20017;-72
2023/04/30 11:37:13;;;;;;;13.23;11.88;;;20.70;99.90;;;;;;5067435;28;20037;-72
2023/04/30 11:39:39;;;;;;;13.20;11.90;;;20.90;99.90;;;;;;5067290;28;20478;-72
2023/04/30 11:42:06;;;;;;;12.90;11.55;;;21.30;99.90;;;;;;5066862;28;20401;-72
2023/04/30 11:44:32;;;;;;;13.27;11.98;;;21.20;99.90;;;;;;5051761;28;20029;-72
2023/04/30 11:46:59;;;;;;;12.43;11.13;;;20.90;99.90;;;;;;5066809;28;20048;-72
2023/04/30 11:49:26;;;;;;;11.75;10.55;;;20.70;99.90;;;;;;5050481;28;20045;-72
2023/04/30 11:51:52;;;;;;;13.27;11.82;;;20.70;99.90;;;;;;5051840;28;20036;-72
2023/04/30 11:54:18;;;;;;;12.65;11.32;;;20.80;99.90;;;;;;5067296;28;20036;-72
2023/04/30 11:56:47;;;;;;;12.52;11.43;;;20.80;99.90;;;;;;5051020;28;20033;-72
2023/04/30 11:59:14;;;;;;;12.57;11.38;;;20.90;99.90;;;;;;5051927;28;20036;-72
2023/04/30 12:01:40;;;;;;;12.75;11.50;;;20.90;99.90;;;;;;5069984;28;20052;-72
2023/04/30 12:04:07;;;;;;;12.38;11.07;;;21.00;99.90;;;;;;5070697;28;20036;-72
2023/04/30 12:06:34;;;;;;;12.27;10.95;;;21.20;99.90;;;;;;5055784;28;20032;-72
2023/04/30 12:09:02;;;;;;;14.60;13.15;;;21.60;99.90;;;;;;5070253;28;20040;-72
2023/04/30 12:11:30;;;;;;;14.82;13.43;;;21.90;99.90;;;;;;5055149;28;20025;-72
2023/04/30 12:13:59;;;;;;;14.38;12.93;;;22.00;99.90;;;;;;5070847;28;20029;-72
2023/04/30 12:16:27;;;;;;;15.23;12.82;;;21.90;99.90;;;;;;5070018;28;20040;-72
2023/04/30 12:18:54;;;;;;;14.38;12.90;;;22.00;99.90;;;;;;5054141;28;20025;-72
2023/04/30 12:21:21;;;;;;;13.18;11.88;;;21.80;99.90;;;;;;5055082;28;20033;-72
2023/04/30 12:23:47;;;;;;;12.48;11.25;;;21.60;99.90;;;;;;5053648;28;20053;-72
2023/04/30 12:26:13;;;;;;;14.45;12.23;;;21.40;99.90;;;;;;5070096;28;20032;-72
2023/04/30 12:28:40;;;;;;;12.82;11.63;;;21.40;99.90;;;;;;5070585;28;20033;-72
2023/04/30 12:31:06;;;;;;;13.13;11.88;;;21.60;99.90;;;;;;5054477;28;20044;-72